Time;durP1;ratioP1;P1;durP2;ratioP2;P2;SDS_P1;SDS_P2;PMS_P1;PMS_P2;Temp;Humidity;BMP_temperature;BMP_pressure;BME280_temperature;BME280_humidity;BME280_pressure;Samples;Min_cycle;Max_cycle;Signal;HPM_P1;HPM_P2
2022/01/01 00:02:13;;;;;;;;;;;17.20;53.20;;;;;;5053749;28;43292;-75
2022/01/01 00:04:40;;;;;;;;;;;18.30;53.60;;;;;;5050024;28;42849;-75
2022/01/01 00:07:05;;;;;;;;;;;18.30;53.60;;;;;;5054784;28;43168;-82
2022/01/01 00:09:31;;;;;;;;;;;18.30;53.50;;;;;;5021275;28;42925;-75
2022/01/01 00:11:57;;;;;;;;;;;18.30;54.00;;;;;;5046216;28;43064;-74
2022/01/01 00:14:22;;;;;;;;;;;18.30;53.60;;;;;;5051872;28;42973;-74
2022/01/01 00:16:48;;;;;;;;;;;18.30;53.60;;;;;;5039119;28;43214;-74
2022/01/01 00:19:14;;;;;;;;;;;18.40;53.60;;;;;;5045235;28;43120;-76
2022/01/01 00:21:41;;;;;;;;;;;15.60;52.60;;;;;;5031850;28;44591;-74
2022/01/01 00:24:07;;;;;;;;;;;18.30;53.60;;;;;;5044830;28;43018;-74
2022/01/01 00:26:32;;;;;;;;;;;18.30;54.10;;;;;;5050814;28;43746;-75
2022/01/01 00:28:58;;;;;;;;;;;18.30;53.60;;;;;;5053660;28;43043;-73
2022/01/01 00:31:25;;;;;;;;;;;18.30;53.90;;;;;;5024748;28;44389;-74
2022/01/01 00:33:50;;;;;;;;;;;18.30;53.60;;;;;;5044768;28;42972;-74
2022/01/01 00:36:16;;;;;;;;;;;18.40;53.70;;;;;;5053681;28;43488;-75
2022/01/01 00:38:41;;;;;;;;;;;18.30;54.20;;;;;;5055118;28;42992;-79
2022/01/01 00:41:07;;;;;;;;;;;18.30;53.60;;;;;;5055148;28;43248;-75
2022/01/01 00:43:32;;;;;;;;;;;18.30;53.60;;;;;;5055944;28;43045;-74
2022/01/01 00:45:58;;;;;;;;;;;18.30;53.70;;;;;;5054062;28;43659;-75
2022/01/01 00:48:23;;;;;;;;;;;18.30;53.70;;;;;;5048182;28;43015;-73
2022/01/01 00:50:49;;;;;;;;;;;18.30;53.70;;;;;;5049936;28;43586;-75
2022/01/01 00:53:14;;;;;;;;;;;18.30;53.70;;;;;;5041940;28;43034;-75
2022/01/01 00:55:40;;;;;;;;;;;18.30;53.70;;;;;;5053943;28;43691;-73
2022/01/01 00:58:05;;;;;;;;;;;18.30;53.80;;;;;;5049887;28;43302;-73
2022/01/01 01:00:31;;;;;;;;;;;18.30;53.80;;;;;;5036677;28;44667;-73
2022/01/01 01:02:56;;;;;;;;;;;18.30;53.80;;;;;;5049389;28;42848;-73
2022/01/01 01:05:22;;;;;;;;;;;18.30;53.80;;;;;;5053304;28;43413;-73
2022/01/01 01:07:47;;;;;;;;;;;18.30;53.80;;;;;;5051090;28;42987;-73
2022/01/01 01:10:13;;;;;;;;;;;18.30;53.80;;;;;;5052148;28;42983;-74
2022/01/01 01:12:45;;;;;;;;;;;18.30;53.90;;;;;;5054072;28;42950;-74
2022/01/01 01:15:17;;;;;;;;;;;18.30;53.90;;;;;;5055192;28;43539;-74
2022/01/01 01:17:43;;;;;;;;;;;18.30;53.90;;;;;;5038617;28;42994;-74
2022/01/01 01:20:09;;;;;;;;;;;18.30;53.90;;;;;;5044406;28;43616;-73
2022/01/01 01:22:35;;;;;;;;;;;18.30;53.90;;;;;;5032342;28;43672;-74
2022/01/01 01:25:01;;;;;;;;;;;18.20;53.80;;;;;;5037787;28;43897;-74
2022/01/01 01:27:28;;;;;;;;;;;18.20;53.90;;;;;;5051498;28;42944;-73
2022/01/01 01:29:54;;;;;;;;;;;18.30;53.90;;;;;;5051195;28;42942;-74
2022/01/01 01:32:20;;;;;;;;;;;18.20;53.90;;;;;;5032376;28;43413;-76
2022/01/01 01:34:45;;;;;;;;;;;18.20;53.90;;;;;;5052528;28;43876;-73
2022/01/01 01:37:11;;;;;;;;;;;18.20;53.90;;;;;;5052573;28;42956;-73
2022/01/01 01:39:36;;;;;;;;;;;18.20;53.90;;;;;;5052354;28;42820;-76
2022/01/01 01:42:02;;;;;;;;;;;18.20;53.90;;;;;;5051156;28;42929;-74
2022/01/01 01:44:33;;;;;;;;;;;18.20;53.90;;;;;;5054325;28;43606;-74
2022/01/01 01:47:01;;;;;;;;;;;18.20;53.90;;;;;;5032169;28;43158;-74
2022/01/01 01:49:27;;;;;;;;;;;18.20;53.90;;;;;;5036716;28;43125;-75
2022/01/01 01:51:53;;;;;;;;;;;18.20;53.90;;;;;;5028802;28;42987;-74
2022/01/01 01:54:20;;;;;;;;;;;18.20;53.90;;;;;;5038251;28;43143;-74
2022/01/01 01:56:45;;;;;;;;;;;18.20;53.90;;;;;;5036922;28;42943;-75
2022/01/01 01:59:12;;;;;;;;;;;18.20;53.90;;;;;;5032274;28;42893;-74
2022/01/01 02:01:37;;;;;;;;;;;18.20;53.90;;;;;;5030746;28;42981;-75
2022/01/01 02:04:03;;;;;;;;;;;18.20;53.90;;;;;;5039458;28;43502;-73
2022/01/01 02:06:28;;;;;;;;;;;18.20;53.90;;;;;;5019197;28;43036;-72
2022/01/01 02:08:54;;;;;;;;;;;18.10;53.80;;;;;;5033944;28;43358;-74
2022/01/01 02:11:21;;;;;;;;;;;18.20;53.90;;;;;;5032552;28;43084;-74
2022/01/01 02:18:49;;;;;;;;;;;18.10;53.90;;;;;;5041397;28;43746;-74
2022/01/01 02:21:15;;;;;;;;;;;18.10;53.80;;;;;;5043674;28;42992;-75
2022/01/01 02:23:43;;;;;;;;;;;18.10;53.80;;;;;;5040086;28;43434;-75
2022/01/01 02:26:12;;;;;;;;;;;18.10;53.80;;;;;;5041110;28;43022;-74
2022/01/01 02:28:47;;;;;;;;;;;18.20;53.80;;;;;;5043710;28;43720;-75
2022/01/01 02:31:14;;;;;;;;;;;18.10;53.80;;;;;;5044365;28;42908;-74
2022/01/01 02:33:40;;;;;;;;;;;18.10;53.90;;;;;;5044119;28;42877;-75
2022/01/01 02:36:05;;;;;;;;;;;18.10;54.00;;;;;;5026143;28;43228;-75
2022/01/01 02:38:34;;;;;;;;;;;18.10;54.00;;;;;;5044477;28;43270;-74
2022/01/01 02:41:00;;;;;;;;;;;18.10;54.00;;;;;;5044096;28;42884;-75
2022/01/01 02:43:26;;;;;;;;;;;18.10;54.00;;;;;;5046271;28;43683;-74
2022/01/01 02:45:52;;;;;;;;;;;18.10;54.00;;;;;;5043501;28;42988;-74
2022/01/01 02:48:17;;;;;;;;;;;18.10;54.00;;;;;;5047602;28;42995;-74
2022/01/01 02:50:43;;;;;;;;;;;18.10;54.00;;;;;;5037325;28;42966;-74
2022/01/01 02:53:12;;;;;;;;;;;18.10;54.00;;;;;;5042841;28;43020;-75
2022/01/01 02:55:38;;;;;;;;;;;18.10;54.00;;;;;;5047616;28;43095;-75
2022/01/01 02:58:04;;;;;;;;;;;18.10;54.00;;;;;;5047468;28;43026;-74
2022/01/01 03:00:30;;;;;;;;;;;18.10;54.00;;;;;;5060234;28;43004;-75
2022/01/01 03:02:55;;;;;;;;;;;18.10;54.00;;;;;;5056883;28;42900;-74
2022/01/01 03:05:21;;;;;;;;;;;18.10;54.00;;;;;;5047774;28;42945;-74
2022/01/01 03:07:46;;;;;;;;;;;18.10;54.00;;;;;;5045068;28;43314;-74
2022/01/01 03:10:12;;;;;;;;;;;18.10;54.00;;;;;;5041910;28;42980;-74
2022/01/01 03:12:37;;;;;;;;;;;18.10;54.00;;;;;;5035035;28;43923;-74
2022/01/01 03:15:03;;;;;;;;;;;18.10;54.00;;;;;;5033188;28;42881;-75
2022/01/01 03:17:28;;;;;;;;;;;18.10;54.00;;;;;;5047192;28;43552;-74
2022/01/01 03:19:54;;;;;;;;;;;18.10;54.00;;;;;;5044967;28;43094;-75
2022/01/01 03:22:19;;;;;;;;;;;18.10;54.00;;;;;;5050890;28;43828;-74
2022/01/01 03:24:45;;;;;;;;;;;18.10;54.00;;;;;;5037153;28;42889;-73
2022/01/01 03:27:10;;;;;;;;;;;18.10;54.00;;;;;;5044574;28;42886;-74
2022/01/01 03:29:36;;;;;;;;;;;18.10;54.00;;;;;;5038900;28;42933;-74
2022/01/01 03:32:02;;;;;;;;;;;18.00;54.00;;;;;;5040663;28;43843;-74
2022/01/01 03:34:27;;;;;;;;;;;18.00;54.00;;;;;;5029385;28;43073;-74
2022/01/01 03:36:53;;;;;;;;;;;18.00;54.00;;;;;;5029567;28;43836;-73
2022/01/01 03:39:18;;;;;;;;;;;18.00;54.00;;;;;;5045799;28;42889;-74
2022/01/01 03:41:44;;;;;;;;;;;18.10;54.00;;;;;;5038084;28;42892;-74
2022/01/01 03:44:09;;;;;;;;;;;18.00;54.00;;;;;;5039045;28;43021;-74
2022/01/01 03:46:35;;;;;;;;;;;18.00;54.00;;;;;;5028016;28;43240;-74
2022/01/01 03:49:00;;;;;;;;;;;18.00;53.90;;;;;;5037468;28;43314;-74
2022/01/01 03:51:27;;;;;;;;;;;18.00;54.00;;;;;;5029631;28;42952;-73
2022/01/01 03:53:52;;;;;;;;;;;18.00;54.00;;;;;;5036085;28;42905;-74
2022/01/01 03:56:18;;;;;;;;;;;18.00;54.00;;;;;;5036042;28;42912;-74
2022/01/01 03:58:43;;;;;;;;;;;18.00;54.00;;;;;;5040423;28;43183;-76
2022/01/01 04:01:09;;;;;;;;;;;17.90;54.00;;;;;;5031696;28;42920;-75
2022/01/01 04:03:34;;;;;;;;;;;18.00;54.00;;;;;;5029052;28;43024;-74
2022/01/01 04:06:00;;;;;;;;;;;18.00;54.00;;;;;;5038861;28;43665;-73
2022/01/01 04:08:25;;;;;;;;;;;18.00;54.00;;;;;;5037300;28;43014;-74
2022/01/01 04:10:51;;;;;;;;;;;18.00;54.00;;;;;;5027814;28;43043;-74
2022/01/01 04:13:16;;;;;;;;;;;18.00;54.10;;;;;;5039970;28;42889;-74
2022/01/01 04:15:42;;;;;;;;;;;18.00;54.10;;;;;;5031311;28;42921;-74
2022/01/01 04:18:11;;;;;;;;;;;17.90;54.00;;;;;;5034393;28;42932;-74
2022/01/01 04:20:37;;;;;;;;;;;17.90;54.00;;;;;;5033072;28;43234;-74
2022/01/01 04:23:07;;;;;;;;;;;18.00;54.10;;;;;;5034545;28;43033;-75
2022/01/01 04:25:32;;;;;;;;;;;18.00;54.00;;;;;;5036510;28;43262;-74
2022/01/01 04:27:58;;;;;;;;;;;17.90;54.00;;;;;;5042595;28;43003;-75
2022/01/01 04:30:25;;;;;;;;;;;17.90;54.00;;;;;;5042759;28;43676;-75
2022/01/01 04:32:50;;;;;;;;;;;17.90;54.00;;;;;;5008725;28;43047;-74
2022/01/01 04:35:16;;;;;;;;;;;17.90;54.10;;;;;;5021936;28;44764;-74
2022/01/01 04:37:41;;;;;;;;;;;17.90;54.00;;;;;;5025898;28;43101;-75
2022/01/01 04:40:08;;;;;;;;;;;17.90;54.00;;;;;;5042274;28;42987;-74
2022/01/01 04:42:33;;;;;;;;;;;17.90;54.00;;;;;;5012607;28;43252;-73
2022/01/01 04:44:59;;;;;;;;;;;17.90;54.00;;;;;;5032735;28;43172;-73
2022/01/01 04:47:25;;;;;;;;;;;17.90;54.00;;;;;;5043827;28;42968;-73
2022/01/01 04:49:51;;;;;;;;;;;17.90;54.00;;;;;;5039481;28;42919;-73
2022/01/01 04:52:16;;;;;;;;;;;17.90;54.00;;;;;;5027060;28;43047;-73
2022/01/01 04:54:44;;;;;;;;;;;17.90;54.00;;;;;;5037820;28;43389;-73
2022/01/01 04:57:10;;;;;;;;;;;17.90;54.10;;;;;;5025991;28;43150;-74
2022/01/01 04:59:35;;;;;;;;;;;17.90;54.00;;;;;;5028038;28;43618;-75
2022/01/01 05:02:02;;;;;;;;;;;17.80;53.90;;;;;;5042958;28;43155;-74
2022/01/01 05:04:27;;;;;;;;;;;17.90;54.00;;;;;;5043241;28;43224;-73
2022/01/01 05:06:53;;;;;;;;;;;17.90;54.00;;;;;;5028169;28;42998;-74
2022/01/01 05:09:19;;;;;;;;;;;17.80;53.90;;;;;;5040206;28;43618;-74
2022/01/01 05:11:45;;;;;;;;;;;17.90;54.00;;;;;;5034105;28;42881;-74
2022/01/01 05:14:11;;;;;;;;;;;17.90;54.00;;;;;;5037683;28;43504;-74
2022/01/01 05:16:37;;;;;;;;;;;17.90;54.00;;;;;;5031116;28;43044;-74
2022/01/01 05:19:02;;;;;;;;;;;17.80;53.90;;;;;;5043294;28;43579;-74
2022/01/01 05:21:32;;;;;;;;;;;17.90;54.00;;;;;;5031136;28;42957;-73
2022/01/01 05:23:57;;;;;;;;;;;17.90;54.00;;;;;;5043577;28;42987;-74
2022/01/01 05:26:23;;;;;;;;;;;17.90;54.00;;;;;;5034154;28;42946;-74
2022/01/01 05:28:49;;;;;;;;;;;17.90;54.60;;;;;;5042445;28;43008;-74
2022/01/01 05:31:19;;;;;;;;;;;17.80;53.90;;;;;;5029640;28;43029;-74
2022/01/01 05:33:48;;;;;;;;;;;17.80;54.00;;;;;;5017677;28;43166;-74
2022/01/01 05:36:14;;;;;;;;;;;17.80;54.00;;;;;;5029614;28;43003;-74
2022/01/01 05:38:40;;;;;;;;;;;17.80;54.00;;;;;;5029443;28;43434;-74
2022/01/01 05:41:06;;;;;;;;;;;17.80;53.90;;;;;;5014335;28;42905;-74
2022/01/01 05:43:31;;;;;;;;;;;17.80;54.00;;;;;;5042736;28;43043;-76
2022/01/01 05:45:57;;;;;;;;;;;17.80;54.00;;;;;;5039611;28;42938;-74
2022/01/01 05:48:22;;;;;;;;;;;17.80;54.00;;;;;;5045022;28;42976;-75
2022/01/01 05:50:48;;;;;;;;;;;17.80;53.90;;;;;;5029067;28;43066;-75
2022/01/01 05:53:14;;;;;;;;;;;17.80;54.00;;;;;;5045063;28;42916;-74
2022/01/01 05:55:39;;;;;;;;;;;17.80;53.90;;;;;;5031644;28;43077;-75
2022/01/01 05:58:05;;;;;;;;;;;17.80;53.90;;;;;;5044837;28;43453;-74
2022/01/01 06:00:31;;;;;;;;;;;17.80;53.90;;;;;;5038365;28;42845;-74
2022/01/01 06:03:00;;;;;;;;;;;17.80;53.90;;;;;;5025842;28;43459;-76
2022/01/01 06:05:26;;;;;;;;;;;17.80;53.90;;;;;;5027445;28;43028;-75
2022/01/01 06:07:53;;;;;;;;;;;17.80;53.90;;;;;;5024309;28;42867;-74
2022/01/01 06:10:19;;;;;;;;;;;17.80;53.90;;;;;;5024773;28;42920;-74
2022/01/01 06:12:44;;;;;;;;;;;17.70;53.90;;;;;;5024930;28;43071;-74
2022/01/01 06:15:10;;;;;;;;;;;17.80;54.00;;;;;;5024179;28;42968;-73
2022/01/01 06:17:35;;;;;;;;;;;17.80;54.20;;;;;;5023578;28;43510;-74
2022/01/01 06:20:01;;;;;;;;;;;17.80;54.00;;;;;;5024932;28;42831;-74
2022/01/01 06:22:26;;;;;;;;;;;17.80;54.00;;;;;;5024661;28;42871;-76
2022/01/01 06:24:52;;;;;;;;;;;17.70;53.90;;;;;;5024611;28;42978;-74
2022/01/01 06:27:17;;;;;;;;;;;17.70;54.00;;;;;;5024897;28;42931;-74
2022/01/01 06:29:43;;;;;;;;;;;17.70;54.00;;;;;;5024588;28;42919;-75
2022/01/01 06:32:08;;;;;;;;;;;17.70;54.00;;;;;;5024822;28;43368;-74
2022/01/01 06:34:34;;;;;;;;;;;17.70;54.00;;;;;;5024488;28;42917;-75
2022/01/01 06:36:59;;;;;;;;;;;17.70;54.00;;;;;;5024520;28;42931;-75
2022/01/01 06:39:25;;;;;;;;;;;17.70;54.00;;;;;;5006501;28;43036;-75
2022/01/01 06:41:50;;;;;;;;;;;17.70;54.00;;;;;;5024313;28;43077;-75
2022/01/01 06:44:16;;;;;;;;;;;17.70;54.00;;;;;;5024272;28;43004;-76
2022/01/01 06:46:41;;;;;;;;;;;17.70;54.10;;;;;;5024638;28;43937;-75
2022/01/01 06:49:07;;;;;;;;;;;17.70;54.00;;;;;;5024439;28;42907;-76
2022/01/01 06:51:32;;;;;;;;;;;17.70;54.10;;;;;;5036373;28;42858;-75
2022/01/01 06:53:58;;;;;;;;;;;17.70;54.00;;;;;;5038856;28;43059;-75
2022/01/01 06:56:24;;;;;;;;;;;17.70;54.00;;;;;;5028272;28;43903;-74
2022/01/01 06:58:49;;;;;;;;;;;17.70;54.00;;;;;;5023820;28;42838;-74
2022/01/01 07:01:15;;;;;;;;;;;17.70;54.00;;;;;;5027032;28;43620;-73
2022/01/01 07:03:40;;;;;;;;;;;17.70;54.00;;;;;;5043722;28;42791;-73
2022/01/01 07:06:06;;;;;;;;;;;17.70;54.10;;;;;;5036495;28;43490;-75
2022/01/01 07:08:31;;;;;;;;;;;17.70;54.10;;;;;;5025482;28;43015;-76
2022/01/01 07:10:57;;;;;;;;;;;17.70;54.10;;;;;;5030922;28;42948;-76
2022/01/01 07:13:24;;;;;;;;;;;17.70;54.10;;;;;;5044350;28;43116;-74
2022/01/01 07:15:50;;;;;;;;;;;16.90;54.70;;;;;;5024662;28;45252;-75
2022/01/01 07:18:16;;;;;;;;;;;17.70;54.20;;;;;;5011525;28;42932;-75
2022/01/01 07:20:42;;;;;;;;;;;17.70;54.30;;;;;;5039110;28;43598;-74
2022/01/01 07:23:08;;;;;;;;;;;17.70;54.60;;;;;;5040585;28;42984;-74
2022/01/01 07:25:33;;;;;;;;;;;17.70;54.20;;;;;;5042945;28;43477;-74
2022/01/01 07:27:59;;;;;;;;;;;17.70;54.20;;;;;;5031705;28;42991;-75
2022/01/01 07:30:25;;;;;;;;;;;17.70;54.30;;;;;;5026896;28;42969;-75
2022/01/01 07:32:50;;;;;;;;;;;17.70;54.30;;;;;;5030014;28;42885;-74
2022/01/01 07:35:17;;;;;;;;;;;17.70;54.30;;;;;;5030839;28;43632;-75
2022/01/01 07:37:43;;;;;;;;;;;17.70;54.30;;;;;;5036788;28;42909;-75
2022/01/01 07:40:09;;;;;;;;;;;17.70;54.20;;;;;;5033100;28;43414;-74
2022/01/01 07:42:35;;;;;;;;;;;17.60;54.50;;;;;;5008865;28;42981;-74
2022/01/01 07:45:01;;;;;;;;;;;17.80;55.10;;;;;;5019191;28;44440;-75
2022/01/01 07:47:26;;;;;;;;;;;17.70;55.30;;;;;;5016922;28;43097;-74
2022/01/01 07:49:52;;;;;;;;;;;17.70;54.30;;;;;;5028074;28;43657;-75
2022/01/01 07:52:18;;;;;;;;;;;17.70;55.20;;;;;;5018797;28;43642;-75
2022/01/01 07:54:44;;;;;;;;;;;17.10;48.10;;;;;;5039171;28;43179;-76
2022/01/01 07:57:09;;;;;;;;;;;16.20;45.90;;;;;;5026504;28;42956;-76
2022/01/01 07:59:35;;;;;;;;;;;15.60;44.50;;;;;;5026520;28;42943;-76
2022/01/01 08:02:01;;;;;;;;;;;14.90;57.40;;;;;;5035112;28;43541;-76
2022/01/01 08:04:26;;;;;;;;;;;14.90;45.60;;;;;;5037897;28;43181;-77
2022/01/01 08:06:52;;;;;;;;;;;15.30;48.10;;;;;;5026376;28;43130;-77
2022/01/01 08:09:17;;;;;;;;;;;16.20;50.60;;;;;;5027011;28;43358;-78
2022/01/01 08:11:43;;;;;;;;;;;16.30;50.80;;;;;;5025618;28;43632;-78
2022/01/01 08:14:08;;;;;;;;;;;16.60;50.40;;;;;;5025168;28;42969;-76
2022/01/01 08:16:34;;;;;;;;;;;16.80;50.20;;;;;;5045120;28;43051;-77
2022/01/01 08:19:00;;;;;;;;;;;17.10;51.10;;;;;;5024578;28;44298;-78
2022/01/01 08:21:25;;;;;;;;;;;17.10;50.70;;;;;;5046214;28;42891;-75
2022/01/01 08:23:51;;;;;;;;;;;17.20;50.20;;;;;;5038326;28;42973;-73
2022/01/01 08:26:16;;;;;;;;;;;17.20;49.90;;;;;;5037705;28;43339;-75
2022/01/01 08:28:42;;;;;;;;;;;17.30;50.60;;;;;;5050652;28;42904;-78
2022/01/01 08:31:08;;;;;;;;;;;17.30;51.00;;;;;;5018944;28;43512;-75
2022/01/01 08:33:33;;;;;;;;;;;17.30;51.30;;;;;;5008114;28;43578;-75
2022/01/01 08:35:59;;;;;;;;;;;17.30;51.40;;;;;;5026152;28;42982;-76
2022/01/01 08:38:24;;;;;;;;;;;17.40;51.60;;;;;;5025254;28;44242;-80
2022/01/01 08:40:50;;;;;;;;;;;17.40;51.50;;;;;;5029354;28;42977;-75
2022/01/01 08:43:16;;;;;;;;;;;17.40;51.80;;;;;;5042837;28;43481;-75
2022/01/01 08:45:41;;;;;;;;;;;17.50;52.50;;;;;;5029682;28;42972;-76
2022/01/01 08:48:07;;;;;;;;;;;17.40;52.20;;;;;;5031409;28;42959;-76
2022/01/01 08:50:32;;;;;;;;;;;17.40;52.00;;;;;;5026086;28;42920;-75
2022/01/01 08:52:58;;;;;;;;;;;17.40;52.00;;;;;;5053356;28;43434;-76
2022/01/01 08:55:24;;;;;;;;;;;17.40;52.10;;;;;;5055062;28;43047;-76
2022/01/01 08:57:50;;;;;;;;;;;17.40;52.10;;;;;;5029016;28;43766;-76
2022/01/01 09:00:15;;;;;;;;;;;17.50;52.30;;;;;;5046598;28;42965;-77
2022/01/01 09:02:41;;;;;;;;;;;17.40;52.30;;;;;;5057626;28;43441;-76
2022/01/01 09:05:07;;;;;;;;;;;17.50;52.50;;;;;;5055761;28;42933;-79
2022/01/01 09:07:33;;;;;;;;;;;17.50;52.60;;;;;;5043442;28;43001;-76
2022/01/01 09:09:59;;;;;;;;;;;17.50;52.70;;;;;;5037766;28;43203;-76
2022/01/01 09:12:25;;;;;;;;;;;17.50;52.70;;;;;;5025122;28;43241;-81
2022/01/01 09:14:51;;;;;;;;;;;17.50;52.90;;;;;;5028319;28;42879;-77
2022/01/01 09:17:17;;;;;;;;;;;17.50;52.90;;;;;;5045340;28;44032;-76
2022/01/01 09:19:42;;;;;;;;;;;17.50;53.60;;;;;;5026058;28;43027;-75
2022/01/01 09:22:08;;;;;;;;;;;17.50;53.00;;;;;;5039249;28;43253;-75
2022/01/01 09:24:34;;;;;;;;;;;17.50;52.90;;;;;;5043545;28;42972;-76
2022/01/01 09:26:59;;;;;;;;;;;17.60;53.00;;;;;;5044489;28;42973;-77
2022/01/01 09:29:28;;;;;;;;;;;17.60;52.90;;;;;;5037629;28;42995;-75
2022/01/01 09:31:53;;;;;;;;;;;17.40;53.50;;;;;;5031602;28;45251;-75
2022/01/01 09:34:19;;;;;;;;;;;17.70;53.10;;;;;;5035668;28;43135;-77
2022/01/01 09:36:46;;;;;;;;;;;;;;;;;;5043737;28;43521;-76
2022/01/01 09:39:11;;;;;;;;;;;17.10;48.50;;;;;;5035172;28;43174;-75
2022/01/01 09:41:41;;;;;;;;;;;16.80;48.30;;;;;;5032325;28;42988;-74
2022/01/01 09:44:10;;;;;;;;;;;16.70;48.10;;;;;;5033225;28;43048;-77
2022/01/01 09:46:37;;;;;;;;;;;16.60;48.40;;;;;;5026364;28;43539;-76
2022/01/01 09:49:02;;;;;;;;;;;16.50;48.20;;;;;;5035492;28;42992;-76
2022/01/01 09:51:28;;;;;;;;;;;16.50;48.50;;;;;;5032567;28;43823;-75
2022/01/01 09:53:53;;;;;;;;;;;16.40;48.20;;;;;;5040966;28;42944;-75
2022/01/01 09:56:19;;;;;;;;;;;16.40;48.40;;;;;;5028478;28;43480;-76
2022/01/01 09:58:45;;;;;;;;;;;16.40;48.40;;;;;;5036165;28;43022;-76
2022/01/01 10:01:11;;;;;;;;;;;16.40;48.20;;;;;;5045021;28;42925;-75
2022/01/01 10:03:43;;;;;;;;;;;16.30;47.70;;;;;;5008950;28;43119;-75
2022/01/01 10:06:12;;;;;;;;;;;16.20;47.40;;;;;;5043374;28;43581;-77
2022/01/01 10:08:41;;;;;;;;;;;16.10;47.30;;;;;;5044248;28;42976;-76
2022/01/01 10:11:08;;;;;;;;;;;16.10;47.70;;;;;;5028524;28;43064;-76
2022/01/01 10:13:34;;;;;;;;;;;16.10;48.20;;;;;;5039597;28;43070;-75
2022/01/01 10:16:02;;;;;;;;;;;16.10;48.50;;;;;;5044189;28;43421;-74
2022/01/01 10:18:31;;;;;;;;;;;16.10;48.60;;;;;;5026104;28;42955;-74
2022/01/01 10:20:57;;;;;;;;;;;16.20;48.50;;;;;;5026861;28;43512;-74
2022/01/01 10:23:28;;;;;;;;;;;16.20;48.50;;;;;;5036139;28;43235;-75
2022/01/01 10:29:03;;;;;;;;;;;16.30;48.50;;;;;;5038276;28;43346;-76
2022/01/01 10:31:29;;;;;;;;;;;16.40;48.70;;;;;;5064424;28;43559;-75
2022/01/01 10:33:54;;;;;;;;;;;16.40;48.70;;;;;;5038736;28;42983;-73
2022/01/01 10:36:21;;;;;;;;;;;16.30;48.00;;;;;;5054461;28;43027;-72
2022/01/01 10:38:48;;;;;;;;;;;16.30;48.10;;;;;;5051440;28;43777;-72
2022/01/01 10:41:15;;;;;;;;;;;15.90;47.80;;;;;;5042242;28;43470;-73
2022/01/01 10:43:42;;;;;;;;;;;16.30;48.40;;;;;;5053249;28;42811;-73
2022/01/01 10:46:19;;;;;;;;;;;16.50;49.30;;;;;;5046117;28;43003;-75
2022/01/01 10:51:13;;;;;;;;;;;16.80;49.50;;;;;;5034309;28;42849;-74
2022/01/01 10:53:39;;;;;;;;;;;17.00;50.10;;;;;;5028308;28;43207;-75
2022/01/01 10:56:16;;;;;;;;;;;17.20;50.20;;;;;;5029492;28;43579;-74
2022/01/01 10:58:41;;;;;;;;;;;17.30;50.10;;;;;;5038123;28;42901;-75
2022/01/01 11:01:08;;;;;;;;;;;17.40;50.20;;;;;;5050999;28;43375;-76
2022/01/01 11:03:41;;;;;;;;;;;17.40;50.10;;;;;;5012513;28;43126;-76
2022/01/01 11:06:11;;;;;;;;;;;17.50;50.20;;;;;;5034229;28;43006;-77
2022/01/01 11:08:37;;;;;;;;;;;17.60;50.20;;;;;;5040913;28;43044;-76
2022/01/01 11:11:03;;;;;;;;;;;17.60;50.20;;;;;;5033314;28;43412;-77
2022/01/01 11:13:33;;;;;;;;;;;17.70;50.70;;;;;;5042211;28;43018;-75
2022/01/01 11:15:58;;;;;;;;;;;17.00;50.00;;;;;;5038392;28;43857;-76
2022/01/01 11:18:24;;;;;;;;;;;17.70;50.30;;;;;;5034104;28;43318;-75
2022/01/01 11:20:50;;;;;;;;;;;17.70;50.30;;;;;;5046457;28;42969;-76
2022/01/01 11:23:16;;;;;;;;;;;17.70;50.30;;;;;;5046101;28;43085;-75
2022/01/01 11:25:42;;;;;;;;;;;17.80;50.40;;;;;;5043620;28;44066;-76
2022/01/01 11:28:10;;;;;;;;;;;17.80;50.40;;;;;;5027857;28;42921;-75
2022/01/01 11:30:38;;;;;;;;;;;17.80;50.40;;;;;;5013221;28;43011;-75
2022/01/01 11:33:06;;;;;;;;;;;17.80;50.40;;;;;;5033808;28;43040;-75
2022/01/01 11:35:36;;;;;;;;;;;17.80;50.40;;;;;;5042591;28;42940;-75
2022/01/01 11:38:03;;;;;;;;;;;17.90;50.50;;;;;;5044863;28;43248;-76
2022/01/01 11:40:40;;;;;;;;;;;17.80;50.50;;;;;;5038766;28;43063;-76
2022/01/01 11:43:06;;;;;;;;;;;17.90;50.50;;;;;;5022485;28;43054;-76
2022/01/01 11:45:42;;;;;;;;;;;17.90;50.60;;;;;;5026530;28;43940;-74
2022/01/01 11:48:26;;;;;;;;;;;17.80;50.50;;;;;;5028592;28;42944;-76
2022/01/01 11:50:52;;;;;;;;;;;21.40;52.30;;;;;;5025062;28;43428;-76
2022/01/01 11:53:28;;;;;;;;;;;17.90;50.60;;;;;;5008836;28;42986;-77
2022/01/01 11:56:10;;;;;;;;;;;17.90;50.60;;;;;;5036926;28;42825;-76
2022/01/01 11:58:54;;;;;;;;;;;17.90;50.60;;;;;;5027761;28;43079;-77
2022/01/01 12:01:22;;;;;;;;;;;17.90;50.70;;;;;;5025090;28;42960;-76
2022/01/01 12:03:52;;;;;;;;;;;17.90;50.60;;;;;;5042061;28;43031;-77
2022/01/01 12:06:18;;;;;;;;;;;18.10;50.80;;;;;;5049354;28;42910;-76
2022/01/01 12:08:46;;;;;;;;;;;17.90;50.80;;;;;;5045727;28;43358;-76
2022/01/01 12:11:31;;;;;;;;;;;17.90;50.70;;;;;;5043072;28;42872;-73
2022/01/01 12:13:58;;;;;;;;;;;17.90;50.30;;;;;;5047925;28;43554;-78
2022/01/01 12:16:25;;;;;;;;;;;17.80;50.60;;;;;;5037263;28;43904;-73
2022/01/01 12:19:03;;;;;;;;;;;17.70;53.60;;;;;;5034036;28;43192;-72
2022/01/01 12:21:37;;;;;;;;;;;18.00;55.30;;;;;;5050636;28;43175;-77
2022/01/01 12:24:08;;;;;;;;;;;17.80;59.20;;;;;;5052666;28;43155;-72
2022/01/01 12:26:34;;;;;;;;;;;17.80;67.70;;;;;;5063063;28;43578;-71
2022/01/01 12:29:03;;;;;;;;;;;17.80;66.30;;;;;;5044067;28;43062;-72
2022/01/01 12:31:29;;;;;;;;;;;17.50;66.50;;;;;;5052076;28;43663;-72
2022/01/01 12:33:59;;;;;;;;;;;;;;;;;;5046625;28;42994;-72
2022/01/01 12:36:29;;;;;;;;;;;18.60;68.20;;;;;;5054807;28;42946;-71
2022/01/01 12:38:56;;;;;;;;;;;17.60;60.50;;;;;;5052284;28;44307;-72
2022/01/01 12:41:42;;;;;;;;;;;17.50;68.60;;;;;;5054055;28;43961;-72
2022/01/01 12:44:21;;;;;;;;;;;17.50;70.40;;;;;;5054539;28;43144;-72
2022/01/01 12:46:47;;;;;;;;;;;17.50;63.20;;;;;;5054729;28;43219;-73
2022/01/01 12:49:13;;;;;;;;;;;17.60;71.20;;;;;;5015107;28;42929;-73
2022/01/01 12:51:39;;;;;;;;;;;17.30;71.50;;;;;;5043048;28;43873;-73
2022/01/01 12:54:12;;;;;;;;;;;17.90;71.90;;;;;;5040836;28;43164;-73
2022/01/01 12:56:38;;;;;;;;;;;17.60;70.10;;;;;;5053344;28;44060;-74
2022/01/01 12:59:08;;;;;;;;;;;17.70;72.40;;;;;;5042965;28;43095;-72
2022/01/01 13:01:44;;;;;;;;;;;17.70;72.70;;;;;;5047106;28;43498;-71
2022/01/01 13:04:09;;;;;;;;;;;17.80;71.50;;;;;;5052211;28;43048;-71
2022/01/01 13:06:39;;;;;;;;;;;17.70;70.80;;;;;;5019568;28;43780;-71
2022/01/01 13:09:06;;;;;;;;;;;17.80;68.90;;;;;;5035283;28;44128;-72
2022/01/01 13:11:33;;;;;;;;;;;17.80;69.70;;;;;;5035072;28;43192;-70
2022/01/01 13:13:58;;;;;;;;;;;17.90;69.70;;;;;;5044064;28;42787;-71
2022/01/01 13:16:24;;;;;;;;;;;17.90;59.00;;;;;;5035539;28;43059;-71
2022/01/01 13:18:50;;;;;;;;;;;17.90;53.20;;;;;;5037094;28;43051;-70
2022/01/01 13:21:16;;;;;;;;;;;17.90;52.40;;;;;;5038513;28;43172;-79
2022/01/01 13:23:42;;;;;;;;;;;17.90;52.40;;;;;;5037176;28;43027;-72
2022/01/01 13:26:07;;;;;;;;;;;17.90;52.40;;;;;;5035931;28;43123;-71
2022/01/01 13:28:35;;;;;;;;;;;17.90;52.40;;;;;;5032519;28;42893;-73
2022/01/01 13:31:02;;;;;;;;;;;18.00;52.80;;;;;;5027618;28;43054;-78
2022/01/01 13:33:27;;;;;;;;;;;;;;;;;;5015644;28;42895;-73
2022/01/01 13:35:54;;;;;;;;;;;17.30;58.70;;;;;;5034199;28;43412;-72
2022/01/01 13:38:20;;;;;;;;;;;17.00;71.30;;;;;;5030969;28;43034;-73
2022/01/01 13:40:46;;;;;;;;;;;;;;;;;;5035654;28;43732;-74
2022/01/01 13:43:11;;;;;;;;;;;16.60;59.20;;;;;;5032435;28;43275;-74
2022/01/01 13:45:37;;;;;;;;;;;16.60;57.80;;;;;;5036506;28;43415;-73
2022/01/01 13:48:03;;;;;;;;;;;16.40;62.90;;;;;;5034804;28;43061;-73
2022/01/01 13:50:36;;;;;;;;;;;16.30;49.00;;;;;;5041888;28;42996;-76
2022/01/01 13:53:05;;;;;;;;;;;16.30;48.70;;;;;;5040590;28;42853;-71
2022/01/01 13:55:32;;;;;;;;;;;16.50;48.90;;;;;;5039644;28;44497;-70
2022/01/01 13:58:01;;;;;;;;;;;16.60;49.00;;;;;;5038656;28;43111;-71
2022/01/01 14:00:26;;;;;;;;;;;16.60;48.70;;;;;;5037100;28;44084;-79
2022/01/01 14:02:53;;;;;;;;;;;16.60;48.60;;;;;;5034728;28;42999;-70
2022/01/01 14:05:20;;;;;;;;;;;16.70;48.70;;;;;;5037562;28;43538;-76
2022/01/01 14:07:46;;;;;;;;;;;16.70;48.40;;;;;;5036288;28;43296;-76
2022/01/01 14:10:15;;;;;;;;;;;16.80;48.50;;;;;;5038535;28;43199;-73
2022/01/01 14:12:42;;;;;;;;;;;16.80;48.20;;;;;;5018812;28;42902;-70
2022/01/01 14:15:18;;;;;;;;;;;16.80;48.00;;;;;;5039407;28;43044;-71
2022/01/01 14:17:47;;;;;;;;;;;16.70;47.90;;;;;;5031360;28;42956;-72
2022/01/01 14:20:22;;;;;;;;;;;16.80;48.10;;;;;;5024249;28;43733;-71
2022/01/01 14:22:47;;;;;;;;;;;16.90;47.90;;;;;;5037026;28;42969;-72
2022/01/01 14:25:14;;;;;;;;;;;17.00;48.00;;;;;;5043757;28;43541;-72
2022/01/01 14:27:40;;;;;;;;;;;17.00;47.70;;;;;;5041309;28;42905;-71